GW4862 Weather Reports


time (UTC)temp
F
wind
direction
speed
knots
gust
knots
rain 1hr
in
rain 24hr
in
rain mn
in
humidity
%
barometer
mb
20260903025500 78 308 0.0 0.0 0.00 0.00 0.00 77 1016.9
20260903024955 78 307 0.0 0.0 0.00 0.00 0.00 77 1017.0
20260903024454 78 307 0.0 0.0 0.00 0.00 0.00 77 1017.1
20260903023949 78 307 0.0 0.0 0.00 0.00 0.00 77 1017.0
20260903023445 79 307 0.0 0.0 0.00 0.00 0.00 76 1016.9
20260903022941 79 307 0.0 0.0 0.00 0.00 0.00 76 1017.0
20260903022440 78 308 0.0 0.0 0.00 0.00 0.00 76 1017.1
20260903021938 79 307 0.0 0.0 0.00 0.00 0.00 77 1017.1
20260903021434 79 307 0.0 0.0 0.00 0.00 0.00 76 1017.0
20260903020928 79 307 0.0 0.0 0.00 0.00 0.00 76 1017.0
20260903020424 79 307 0.0 0.0 0.00 0.00 0.00 76 1017.0
20260903015919 79 307 0.0 0.0 0.00 0.00 0.00 76 1017.0
20260903015415 79 307 0.0 0.0 0.00 0.00 0.00 76 1017.1
20260903014909 79 307 0.0 0.0 0.00 0.00 0.00 75 1017.1
20260903014403 79 307 0.0 0.0 0.00 0.00 0.00 75 1017.0
20260903013858 79 307 0.0 0.0 0.00 0.00 0.00 75 1016.8
20260903013357 80 307 0.0 0.0 0.00 0.00 0.00 75 1016.8
20260903012856 80 307 0.0 0.0 0.00 0.00 0.00 75 1016.8
20260903012350 80 308 0.0 0.0 0.00 0.00 0.00 74 1016.8
20260903011850 80 311 0.0 0.0 0.00 0.00 0.00 73 1016.7
20260903011350 80 311 0.0 0.0 0.00 0.00 0.00 73 1016.8
20260903010846 81 311 0.0 0.0 0.00 0.00 0.00 73 1016.7
20260903010341 81 311 0.0 0.0 0.00 0.00 0.00 72 1016.6
20260903005839 81 330 0.0 0.0 0.00 0.00 0.00 72 1016.7
20260903005334 81 339 0.0 0.0 0.00 0.00 0.00 71 1016.6
20260903004831 81 340 0.0 0.0 0.00 0.00 0.00 71 1016.4
20260903004326 81 340 0.0 0.0 0.00 0.00 0.00 71 1016.4
20260903003822 82 340 0.0 0.0 0.00 0.00 0.00 71 1016.4
20260903003316 82 340 0.0 0.0 0.00 0.00 0.00 71 1016.4
20260903002815 82 340 0.0 0.0 0.00 0.00 0.00 71 1016.4
20260903002315 83 340 0.0 0.0 0.00 0.00 0.00 71 1016.2
20260903001811 83 340 0.0 0.0 0.00 0.00 0.00 69 1016.5
20260903001306 83 340 0.0 0.0 0.00 0.00 0.00 69 1016.3
20260903000806 84 340 0.0 0.0 0.00 0.00 0.00 69 1016.4
20260903000303 84 340 0.0 0.0 0.00 0.00 0.00 68 1016.3
20260902235758 84 340 0.0 0.0 0.00 0.00 0.00 69 1016.2
20260902235254 85 335 0.0 0.0 0.00 0.00 0.00 67 1016.4
20260902234754 86 335 0.0 0.0 0.00 0.00 0.00 66 1016.2
20260902234248 86 334 0.0 0.0 0.00 0.00 0.00 66 1016.2
20260902233747 87 334 0.0 0.0 0.00 0.00 0.00 64 1016.4
20260902233241 87 334 0.0 0.0 0.00 0.00 0.00 63 1016.2
20260902232740 88 334 0.0 0.0 0.00 0.00 0.00 62 1016.4
20260902232235 88 334 0.0 0.0 0.00 0.00 0.00 61 1016.4
20260902231734 89 334 0.0 0.0 0.00 0.00 0.00 60 1016.5
20260902231230 89 334 0.0 0.0 0.00 0.00 0.00 59 1016.3
20260902230725 90 334 0.0 0.0 0.00 0.00 0.00 59 1016.3
20260902230224 90 330 0.0 0.0 0.00 0.00 0.00 57 1016.4
20260902225719 90 330 0.0 0.0 0.00 0.00 0.00 60 1016.5
20260902225219 90 330 0.0 0.0 0.00 0.00 0.00 58 1016.3
20260902224717 90 339 0.0 0.0 0.00 0.00 0.00 57 1016.5
20260902224213 90 329 0.0 0.0 0.00 0.00 0.00 56 1016.5
20260902223709 90 326 0.0 0.9 0.00 0.00 0.00 56 1016.4
20260902223208 91 311 0.9 0.9 0.00 0.00 0.00 55 1016.5
20260902222707 91 321 0.9 0.9 0.00 0.00 0.00 55 1016.5
20260902222206 92 299 0.9 0.9 0.00 0.00 0.00 54 1016.5
20260902221701 92 307 0.9 0.9 0.00 0.00 0.00 54 1016.5
20260902221154 92 280 0.9 0.9 0.00 0.00 0.00 55 1016.6
20260902220650 92 333 0.0 0.0 0.00 0.00 0.00 54 1016.5
20260902220145 92 351 0.0 0.0 0.00 0.00 0.00 54 1016.5
20260902215641 92 335 0.9 0.9 0.00 0.00 0.00 55 1016.4
20260902215136 92 336 0.0 0.9 0.00 0.00 0.00 54 1016.4
20260902214631 91 299 0.9 0.9 0.00 0.00 0.00 54 1016.5
20260902214131 92 324 0.0 0.0 0.00 0.00 0.00 53 1016.5
20260902213626 92 309 0.0 0.9 0.00 0.00 0.00 54 1016.6
20260902213125 93 314 0.0 0.9 0.00 0.00 0.00 53 1016.6
20260902212621 93 335 0.0 0.0 0.00 0.00 0.00 52 1016.6
20260902212117 93 311 0.9 0.9 0.00 0.00 0.00 51 1016.7
20260902211613 94 298 1.7 2.6 0.00 0.00 0.00 51 1016.6
20260902211108 94 349 0.9 0.9 0.00 0.00 0.00 50 1016.7
20260902210607 94 325 0.0 0.9 0.00 0.00 0.00 53 1016.7
20260902205601 96 311 0.9 0.9 0.00 0.00 0.00 48 1016.7
20260902205056 96 336 0.0 0.0 0.00 0.00 0.00 48 1016.8
20260902204551 96 276 0.9 0.9 0.00 0.00 0.00 49 1016.9
20260902204046 94 144 1.7 2.6 0.00 0.00 0.00 50 1016.7
20260902203541 93 320 0.9 0.9 0.00 0.00 0.00 52 1016.9
20260902203040 94 310 0.0 0.9 0.00 0.00 0.00 51 1017.0
20260902202536 96 287 0.9 1.7 0.00 0.00 0.00 48 1016.9
20260902202032 96 294 0.9 1.7 0.00 0.00 0.00 47 1017.0
20260902201527 96 193 0.9 1.7 0.00 0.00 0.00 46 1016.9
20260902201021 96 300 0.9 0.9 0.00 0.00 0.00 48 1016.9
20260902200517 97 261 1.7 1.7 0.00 0.00 0.00 49 1017.0
20260902200013 96 318 0.9 1.7 0.00 0.00 0.00 47 1017.1
20260902195508 97 302 0.9 0.9 0.00 0.00 0.00 46 1017.1
20260902195007 97 308 0.9 0.9 0.00 0.00 0.00 46 1017.2
20260902194506 96 12 0.0 0.9 0.00 0.00 0.00 48 1017.3
20260902194002 96 340 0.9 0.9 0.00 0.00 0.00 46 1017.3
20260902193457 96 292 0.9 1.7 0.00 0.00 0.00 47 1017.6
20260902192956 95 323 0.9 0.9 0.00 0.00 0.00 50 1017.5
20260902192450 95 296 1.7 2.6 0.00 0.00 0.00 50 1017.6
20260902191949 96 328 0.0 0.9 0.00 0.00 0.00 48 1017.6
20260902191444 96 330 0.0 0.9 0.00 0.00 0.00 47 1017.5
20260902190939 96 296 1.7 1.7 0.00 0.00 0.00 49 1017.5
20260902190435 95 336 1.7 2.6 0.00 0.00 0.00 47 1017.7
20260902185930 95 57 1.7 1.7 0.00 0.00 0.00 47 1017.5
20260902185426 95 122 3.5 3.5 0.00 0.00 0.00 49 1017.7
20260902184921 95 295 1.7 1.7 0.00 0.00 0.00 51 1017.9
20260902184416 95 289 1.7 2.6 0.00 0.00 0.00 49 1017.9
20260902183912 95 261 1.7 2.6 0.00 0.00 0.00 50 1017.9
20260902183408 95 297 0.0 0.9 0.00 0.00 0.00 50 1017.9
20260902182904 95 305 0.0 0.9 0.00 0.00 0.00 49 1017.9
20260902182400 95 292 0.9 1.7 0.00 0.00 0.00 48 1017.9
20260902181856 95 295 0.0 0.9 0.00 0.00 0.00 49 1017.9
20260902181351 95 297 0.9 0.9 0.00 0.00 0.00 50 1018.0
20260902180845 95 295 1.7 3.5 0.00 0.00 0.00 48 1018.2
20260902180341 95 273 1.7 1.7 0.00 0.00 0.00 49 1018.1
20260902175836 95 297 0.9 0.9 0.00 0.00 0.00 53 1018.2
20260902175331 95 291 0.9 1.7 0.00 0.00 0.00 50 1018.3
20260902174826 95 272 1.7 2.6 0.00 0.00 0.00 52 1018.3
20260902174323 94 289 0.9 0.9 0.00 0.00 0.00 50 1018.5
20260902173813 94 273 1.7 2.6 0.00 0.00 0.00 50 1018.5
20260902173313 94 305 1.7 1.7 0.00 0.00 0.00 53 1018.4
20260902172813 94 252 2.6 3.5 0.00 0.00 0.00 50 1018.3
20260902172308 95 280 1.7 2.6 0.00 0.00 0.00 50 1018.4
20260902171803 94 306 0.9 0.9 0.00 0.00 0.00 51 1018.5
20260902171257 93 283 0.9 1.7 0.00 0.00 0.00 51 1018.7
20260902170754 94 260 1.7 1.7 0.00 0.00 0.00 51 1018.6
20260902170249 93 275 0.0 0.9 0.00 0.00 0.00 54 1018.8
20260902165744 94 296 1.7 1.7 0.00 0.00 0.00 52 1018.7
20260902165244 94 299 0.0 0.0 0.00 0.00 0.00 56 1018.7
20260902164738 93 291 0.9 0.9 0.00 0.00 0.00 54 1018.7
20260902164232 93 295 0.9 0.9 0.00 0.00 0.00 54 1018.8
20260902163727 93 301 0.0 0.9 0.00 0.00 0.00 55 1019.1
20260902163221 93 298 0.9 0.9 0.00 0.00 0.00 55 1019.1
20260902162720 93 299 0.9 0.9 0.00 0.00 0.00 55 1019.0
20260902162215 94 279 0.0 0.0 0.00 0.00 0.00 57 1018.8
20260902161710 92 318 0.9 1.7 0.00 0.00 0.00 56 1019.1
20260902161206 92 312 0.9 1.7 0.00 0.00 0.00 58 1019.0
20260902160703 91 299 0.9 0.9 0.00 0.00 0.00 58 1019.1
20260902160201 92 315 0.9 1.7 0.00 0.00 0.00 58 1018.8
20260902155700 91 313 0.0 0.0 0.00 0.00 0.00 58 1019.1
20260902155200 92 298 0.9 0.9 0.00 0.00 0.00 59 1019.2
20260902154655 92 312 0.0 0.0 0.00 0.00 0.00 58 1019.5
20260902154154 91 298 0.9 0.9 0.00 0.00 0.00 62 1019.2
20260902153649 91 311 0.0 0.0 0.00 0.00 0.00 59 1019.4
20260902153149 91 311 0.0 0.0 0.00 0.00 0.00 62 1019.4
20260902152645 91 302 0.0 0.9 0.00 0.00 0.00 59 1019.5
20260902152140 91 319 0.0 0.0 0.00 0.00 0.00 58 1019.4
20260902151636 90 304 0.0 0.0 0.00 0.00 0.00 61 1019.5
20260902151136 90 303 0.0 0.9 0.00 0.00 0.00 62 1019.5
20260902150632 90 311 0.0 0.0 0.00 0.00 0.00 61 1019.5
20260902150127 89 320 0.0 0.0 0.00 0.00 0.00 60 1019.5
20260902145627 89 301 0.0 0.9 0.00 0.00 0.00 64 1019.7
20260902145126 89 282 0.9 1.7 0.00 0.00 0.00 61 1019.4
20260902144624 90 304 0.9 0.9 0.00 0.00 0.00 60 1019.4
20260902144124 89 291 0.9 0.9 0.00 0.00 0.00 61 1019.4
20260902143619 88 315 0.0 0.0 0.00 0.00 0.00 63 1019.3
20260902143114 87 302 0.9 0.9 0.00 0.00 0.00 64 1019.3
20260902142609 87 303 0.0 0.0 0.00 0.00 0.00 65 1019.3
20260902142105 86 310 0.0 0.0 0.00 0.00 0.00 66 1019.3
20260902141605 85 303 0.9 0.9 0.00 0.00 0.00 67 1019.5
20260902141100 86 302 0.9 0.9 0.00 0.00 0.00 66 1019.3
20260902140555 86 305 0.0 0.0 0.00 0.00 0.00 70 1019.2
20260902140051 86 310 0.0 0.9 0.00 0.00 0.00 66 1019.3
20260902135544 85 304 0.0 0.0 0.00 0.00 0.00 68 1019.3
20260902135039 85 309 0.0 0.0 0.00 0.00 0.00 66 1019.3
20260902134535 85 308 0.0 0.9 0.00 0.00 0.00 65 1019.3
20260902134034 85 308 0.0 0.0 0.00 0.00 0.00 68 1019.2
20260902133529 84 304 0.0 0.0 0.00 0.00 0.00 65 1019.4
20260902133024 84 302 0.0 0.0 0.00 0.00 0.00 69 1019.3
20260902132519 85 310 0.0 0.0 0.00 0.00 0.00 68 1019.3
20260902132015 85 306 0.0 0.0 0.00 0.00 0.00 67 1019.2
20260902131511 85 308 0.0 0.9 0.00 0.00 0.00 66 1019.3
20260902131011 84 308 0.0 0.0 0.00 0.00 0.00 67 1019.2
20260902130507 82 308 0.0 0.0 0.00 0.00 0.00 71 1019.4
20260902130002 82 305 0.0 0.9 0.00 0.00 0.00 71 1019.3
20260902125457 82 308 0.0 0.0 0.00 0.00 0.00 70 1019.2
20260902124953 81 308 0.0 0.0 0.00 0.00 0.00 72 1019.0
20260902124449 81 308 0.0 0.0 0.00 0.00 0.00 74 1019.1
20260902123944 81 309 0.0 0.0 0.00 0.00 0.00 74 1019.2
20260902123440 81 315 0.0 0.0 0.00 0.00 0.00 72 1019.1
20260902122938 81 312 0.0 0.0 0.00 0.00 0.00 74 1019.2
20260902122434 80 312 0.0 0.0 0.00 0.00 0.00 74 1019.0
20260902121930 79 312 0.0 0.0 0.00 0.00 0.00 76 1018.7
20260902121424 78 312 0.0 0.0 0.00 0.00 0.00 78 1018.8
20260902120919 77 311 0.0 0.0 0.00 0.00 0.00 80 1019.0
20260902120415 75 311 0.0 0.0 0.00 0.00 0.00 85 1018.8
20260902115914 73 311 0.0 0.0 0.00 0.00 0.00 90 1018.8
20260902115411 72 311 0.0 0.0 0.00 0.00 0.00 90 1018.7
20260902114908 71 311 0.0 0.0 0.00 0.00 0.00 91 1018.6
20260902114403 71 311 0.0 0.0 0.00 0.00 0.00 91 1018.7
20260902113903 71 311 0.0 0.0 0.00 0.00 0.00 91 1018.6
20260902113358 71 311 0.0 0.0 0.00 0.00 0.00 91 1018.5
20260902112858 71 312 0.0 0.0 0.00 0.00 0.00 91 1018.4
20260902112354 71 312 0.0 0.0 0.00 0.00 0.00 91 1018.4
20260902111850 71 312 0.0 0.0 0.00 0.00 0.00 91 1018.4
20260902111346 71 312 0.0 0.0 0.00 0.00 0.00 91 1018.2
20260902110841 71 312 0.0 0.0 0.00 0.00 0.00 91 1018.2
20260902110337 71 312 0.0 0.0 0.00 0.00 0.00 91 1018.4
20260902105832 71 312 0.0 0.0 0.00 0.00 0.00 91 1018.4
20260902105327 71 312 0.0 0.0 0.00 0.00 0.00 91 1018.3
20260902104821 71 312 0.0 0.0 0.00 0.00 0.00 91 1018.6
20260902104318 71 312 0.0 0.0 0.00 0.00 0.00 91 1018.5
20260902103812 71 312 0.0 0.0 0.00 0.00 0.00 91 1018.4
20260902103307 71 312 0.0 0.0 0.00 0.00 0.00 91 1018.3
20260902102802 71 312 0.0 0.0 0.00 0.00 0.00 91 1018.3
20260902102300 71 312 0.0 0.0 0.00 0.00 0.00 90 1018.3
20260902101755 71 312 0.0 0.0 0.00 0.00 0.00 90 1018.2
20260902101249 71 311 0.0 0.0 0.00 0.00 0.00 90 1018.2
20260902100748 71 311 0.0 0.0 0.00 0.00 0.00 90 1018.2
20260902100243 71 311 0.0 0.0 0.00 0.00 0.00 90 1018.2
20260902095737 71 311 0.0 0.0 0.00 0.00 0.00 90 1018.4
20260902095232 71 311 0.0 0.0 0.00 0.00 0.00 90 1018.2
20260902094727 71 311 0.0 0.0 0.00 0.00 0.00 90 1018.2
20260902094223 72 308 0.0 0.0 0.00 0.00 0.00 90 1018.3
20260902093722 72 308 0.0 0.0 0.00 0.00 0.00 89 1018.3
20260902093217 72 308 0.0 0.0 0.00 0.00 0.00 89 1018.2
20260902092712 72 308 0.0 0.0 0.00 0.00 0.00 89 1018.3
20260902092207 72 308 0.0 0.0 0.00 0.00 0.00 89 1018.1
20260902091706 72 308 0.0 0.0 0.00 0.00 0.00 89 1018.2
20260902091203 72 308 0.0 0.0 0.00 0.00 0.00 89 1018.2
20260902090659 72 308 0.0 0.0 0.00 0.00 0.00 89 1018.1
20260902090158 72 308 0.0 0.0 0.00 0.00 0.00 89 1018.2
20260902085658 72 308 0.0 0.0 0.00 0.00 0.00 89 1018.1
20260902085153 72 308 0.0 0.0 0.00 0.00 0.00 89 1018.0
20260902084649 72 308 0.0 0.0 0.00 0.00 0.00 89 1017.8
20260902084145 72 308 0.0 0.0 0.00 0.00 0.00 89 1017.9
20260902083640 72 308 0.0 0.0 0.00 0.00 0.00 89 1017.7
20260902083139 72 308 0.0 0.0 0.00 0.00 0.00 89 1017.6
20260902082635 72 308 0.0 0.0 0.00 0.00 0.00 89 1017.8
20260902082131 72 308 0.0 0.0 0.00 0.00 0.00 88 1017.6
20260902081627 72 308 0.0 0.0 0.00 0.00 0.00 88 1017.7
20260902081122 72 308 0.0 0.0 0.00 0.00 0.00 88 1017.6
20260902080617 73 308 0.0 0.0 0.00 0.00 0.00 87 1017.6
20260902080114 73 308 0.0 0.0 0.00 0.00 0.00 87 1017.7
20260902075613 73 308 0.0 0.0 0.00 0.00 0.00 87 1017.5
20260902075110 73 308 0.0 0.0 0.00 0.00 0.00 86 1017.5
20260902074605 73 308 0.0 0.0 0.00 0.00 0.00 86 1017.6
20260902074100 73 308 0.0 0.0 0.00 0.00 0.00 86 1017.6
20260902073555 73 308 0.0 0.0 0.00 0.00 0.00 86 1017.4
20260902073052 73 308 0.0 0.0 0.00 0.00 0.00 85 1017.4
20260902072547 73 308 0.0 0.0 0.00 0.00 0.00 85 1017.5
20260902072044 73 308 0.0 0.0 0.00 0.00 0.00 85 1017.5
20260902071543 73 308 0.0 0.0 0.00 0.00 0.00 85 1017.5
20260902071039 73 308 0.0 0.0 0.00 0.00 0.00 85 1017.5
20260902070534 73 308 0.0 0.0 0.00 0.00 0.00 86 1017.6
20260902070030 73 308 0.0 0.0 0.00 0.00 0.00 85 1017.5
20260902065529 74 308 0.0 0.0 0.00 0.00 0.00 85 1017.3
20260902065024 74 308 0.0 0.0 0.00 0.00 0.00 85 1017.6
20260902064520 74 308 0.0 0.0 0.00 0.00 0.00 85 1017.5
20260902064016 74 308 0.0 0.0 0.00 0.00 0.00 85 1017.5
20260902063515 74 308 0.0 0.0 0.00 0.00 0.00 84 1017.4
20260902063010 74 308 0.0 0.0 0.00 0.00 0.00 85 1017.4
20260902062508 74 308 0.0 0.0 0.00 0.00 0.00 85 1017.5
20260902062005 74 308 0.0 0.0 0.00 0.00 0.00 85 1017.4
20260902061459 74 308 0.0 0.0 0.00 0.00 0.00 84 1017.6
20260902060955 74 308 0.0 0.0 0.00 0.00 0.00 85 1017.4
20260902060451 74 308 0.0 0.0 0.00 0.00 0.00 84 1017.6
20260902055947 74 308 0.0 0.0 0.00 0.00 0.00 84 1017.4
20260902055443 74 308 0.0 0.0 0.00 0.00 0.00 84 1017.6
20260902054938 74 308 0.0 0.0 0.00 0.00 0.00 83 1017.6
20260902054433 75 308 0.0 0.0 0.00 0.00 0.00 83 1017.6
20260902053928 75 308 0.0 0.0 0.00 0.00 0.00 83 1017.6
20260902053424 75 308 0.0 0.0 0.00 0.00 0.00 83 1017.6
20260902052922 75 308 0.0 0.0 0.00 0.00 0.00 83 1017.6
20260902052418 75 308 0.0 0.0 0.00 0.00 0.00 82 1017.5
20260902051913 75 308 0.0 0.0 0.00 0.00 0.00 82 1017.8
20260902051413 75 308 0.0 0.0 0.00 0.00 0.00 82 1017.6
20260902050912 75 308 0.0 0.0 0.00 0.00 0.00 82 1017.5
20260902050412 75 308 0.0 0.0 0.00 0.00 0.00 82 1017.6
20260902045907 75 308 0.0 0.0 0.00 0.00 0.00 82 1017.6
20260902045403 75 308 0.0 0.0 0.00 0.00 0.00 82 1017.6
20260902044900 75 308 0.0 0.0 0.00 0.00 0.00 82 1017.6
20260902044400 75 308 0.0 0.0 0.00 0.00 0.00 82 1017.5
20260902043900 75 308 0.0 0.0 0.00 0.00 0.00 82 1017.3
20260902043355 75 308 0.0 0.0 0.00 0.00 0.00 82 1017.5
20260902042850 75 308 0.0 0.0 0.00 0.00 0.00 81 1017.7
20260902042350 76 308 0.0 0.0 0.00 0.00 0.00 82 1017.6
20260902041845 75 308 0.0 0.0 0.00 0.00 0.00 82 1017.6
20260902041339 75 308 0.0 0.0 0.00 0.00 0.00 82 1017.6
20260902040838 75 308 0.0 0.0 0.00 0.00 0.00 82 1017.7
20260902040334 76 308 0.0 0.0 0.00 0.00 0.00 82 1017.7
20260902035832 76 308 0.0 0.0 0.00 0.00 0.00 82 1017.7
20260902035328 76 308 0.0 0.0 0.00 0.00 0.00 82 1017.7
20260902034827 76 308 0.0 0.0 0.00 0.00 0.00 82 1017.7
20260902034322 76 308 0.0 0.0 0.00 0.00 0.00 81 1017.8
20260902033820 76 308 0.0 0.0 0.00 0.00 0.00 81 1017.7
20260902033315 76 308 0.0 0.0 0.00 0.00 0.00 81 1017.6
20260902032814 76 308 0.0 0.0 0.00 0.00 0.00 81 1017.6
20260902032309 76 308 0.0 0.0 0.00 0.00 0.00 81 1017.5
20260902031809 77 308 0.0 0.0 0.00 0.00 0.00 81 1017.7
20260902031305 77 308 0.0 0.0 0.00 0.00 0.00 81 1017.7
20260902030800 77 308 0.0 0.0 0.00 0.00 0.00 80 1017.7
20260902030255 77 308 0.0 0.0 0.00 0.00 0.00 80 1017.7